Time;durP1;ratioP1;P1;durP2;ratioP2;P2;SDS_P1;SDS_P2;PMS_P1;PMS_P2;Temp;Humidity;BMP_temperature;BMP_pressure;BME280_temperature;BME280_humidity;BME280_pressure;Samples;Min_cycle;Max_cycle;Signal;HPM_P1;HPM_P2
2021/03/04 00:00:12;;;;;;;1.97;0.23;;;-0.50;44.10;;;;;;4374284;32;20159;-36
2021/03/04 00:02:39;;;;;;;1.70;0.30;;;-0.50;44.10;;;;;;4360034;32;20153;-37
2021/03/04 00:05:08;;;;;;;1.20;0.30;;;-0.40;44.10;;;;;;4372572;32;20078;-35
2021/03/04 00:07:35;;;;;;;2.53;0.30;;;-0.40;44.00;;;;;;4374049;32;20152;-35
2021/03/04 00:10:04;;;;;;;1.13;0.27;;;-0.30;44.00;;;;;;4374144;32;20085;-36
2021/03/04 00:12:30;;;;;;;1.53;0.30;;;-0.40;44.10;;;;;;4372714;32;20066;-37
2021/03/04 00:14:57;;;;;;;2.73;0.20;;;-0.30;44.30;;;;;;4360120;32;20169;-35
2021/03/04 00:17:23;;;;;;;4.13;0.43;;;-0.30;44.40;;;;;;4373674;32;20583;-35
2021/03/04 00:19:50;;;;;;;0.93;0.27;;;-0.30;44.60;;;;;;4373810;32;20137;-37
2021/03/04 00:22:16;;;;;;;2.03;0.20;;;-0.30;44.60;;;;;;4373481;32;20078;-35
2021/03/04 00:24:42;;;;;;;2.00;0.30;;;-0.30;44.60;;;;;;4372077;32;20074;-36
2021/03/04 00:27:09;;;;;;;2.23;0.50;;;-0.30;44.60;;;;;;4373767;32;20069;-36
2021/03/04 00:29:35;;;;;;;0.63;0.40;;;-0.30;44.60;;;;;;4373916;32;20066;-37
2021/03/04 00:32:02;;;;;;;0.33;0.30;;;-0.20;44.60;;;;;;4373787;32;20074;-34
2021/03/04 00:34:28;;;;;;;0.40;0.30;;;-0.20;44.50;;;;;;4373616;32;20081;-35
2021/03/04 00:36:55;;;;;;;0.80;0.40;;;-0.20;44.40;;;;;;4373543;32;20113;-37
2021/03/04 00:39:21;;;;;;;1.67;0.30;;;-0.20;44.50;;;;;;4372410;32;20063;-37
2021/03/04 00:41:48;;;;;;;0.40;0.30;;;-0.30;44.60;;;;;;4373720;32;20090;-36
2021/03/04 00:44:14;;;;;;;3.43;0.30;;;-0.20;44.60;;;;;;4373613;32;20149;-36
2021/03/04 00:46:40;;;;;;;6.87;0.27;;;-0.30;44.60;;;;;;4373594;32;20161;-40
2021/03/04 00:49:07;;;;;;;1.20;0.33;;;-0.30;44.60;;;;;;4373723;32;20073;-36
2021/03/04 00:51:33;;;;;;;0.40;0.30;;;-0.30;44.60;;;;;;4373452;32;20534;-36
2021/03/04 00:54:00;;;;;;;7.20;0.40;;;-0.30;44.70;;;;;;4373627;32;20144;-36
2021/03/04 00:56:26;;;;;;;1.50;0.40;;;-0.30;45.00;;;;;;4373729;32;20168;-36
2021/03/04 00:58:53;;;;;;;0.87;0.30;;;-0.30;45.10;;;;;;4373576;32;20063;-35
2021/03/04 01:01:19;;;;;;;3.50;0.20;;;-0.40;45.20;;;;;;4373607;32;20054;-35
2021/03/04 01:03:46;;;;;;;0.97;0.20;;;-0.40;45.30;;;;;;4373395;32;20466;-35
2021/03/04 01:06:13;;;;;;;0.93;0.40;;;-0.40;45.50;;;;;;4373499;32;20168;-36
2021/03/04 01:08:40;;;;;;;1.17;0.30;;;-0.40;45.80;;;;;;4373636;32;20069;-35
2021/03/04 01:11:07;;;;;;;3.63;0.40;;;-0.40;45.80;;;;;;4373104;32;20066;-40
2021/03/04 01:13:33;;;;;;;2.00;0.30;;;-0.40;45.80;;;;;;4373525;32;20066;-35
2021/03/04 01:16:00;;;;;;;5.20;0.57;;;-0.40;45.90;;;;;;4373198;32;20162;-34
2021/03/04 01:18:26;;;;;;;0.70;0.30;;;-0.40;45.90;;;;;;4373091;32;20644;-36
2021/03/04 01:20:53;;;;;;;0.93;0.30;;;-0.40;46.00;;;;;;4372862;32;20074;-36
2021/03/04 01:23:19;;;;;;;2.60;0.43;;;-0.40;46.00;;;;;;4371882;32;20541;-35
2021/03/04 01:25:46;;;;;;;2.80;0.50;;;-0.40;46.10;;;;;;4373148;32;20074;-35
2021/03/04 01:28:12;;;;;;;1.90;0.73;;;-0.40;46.10;;;;;;4372957;32;20081;-37
2021/03/04 01:30:39;;;;;;;0.97;0.30;;;-0.40;46.10;;;;;;4373449;32;20081;-35
2021/03/04 01:33:06;;;;;;;0.80;0.50;;;-0.50;46.10;;;;;;4371483;32;20142;-36
2021/03/04 01:35:32;;;;;;;3.20;0.40;;;-0.50;46.20;;;;;;4371604;32;20089;-36
2021/03/04 01:37:59;;;;;;;1.30;0.53;;;-0.50;46.30;;;;;;4373022;32;20137;-35
2021/03/04 01:40:25;;;;;;;1.67;0.60;;;-0.50;46.40;;;;;;4373111;32;20169;-37
2021/03/04 01:42:52;;;;;;;2.00;0.50;;;-0.60;46.40;;;;;;4371456;32;20110;-36
2021/03/04 01:45:19;;;;;;;4.40;0.43;;;-0.60;46.60;;;;;;4346419;32;20070;-35
2021/03/04 01:47:53;;;;;;;2.50;0.67;;;-0.70;46.70;;;;;;4372829;32;20063;-35
2021/03/04 01:50:21;;;;;;;1.33;0.50;;;-0.70;46.80;;;;;;4371798;32;20089;-35
2021/03/04 01:52:47;;;;;;;1.67;0.70;;;-0.70;46.90;;;;;;4373307;32;20059;-36
2021/03/04 01:55:16;;;;;;;3.10;0.50;;;-0.70;46.90;;;;;;4347144;32;20081;-37
2021/03/04 01:57:44;;;;;;;0.40;0.30;;;-0.80;47.00;;;;;;4372978;32;20481;-36
2021/03/04 02:00:11;;;;;;;3.20;0.67;;;-0.80;47.00;;;;;;4373090;32;20069;-37
2021/03/04 02:02:38;;;;;;;3.63;0.70;;;-0.80;47.10;;;;;;4371560;32;20108;-35
2021/03/04 02:05:10;;;;;;;3.13;0.60;;;-0.80;47.20;;;;;;4373251;32;20094;-35
2021/03/04 02:07:43;;;;;;;1.10;0.37;;;-0.90;47.40;;;;;;4373208;32;20070;-36
2021/03/04 02:10:17;;;;;;;1.90;0.40;;;-0.90;47.40;;;;;;4373083;32;20110;-44
2021/03/04 02:13:04;;;;;;;1.48;1.25;;;-0.90;47.50;;;;;;4371533;32;20152;-37
2021/03/04 02:15:45;;;;;;;1.27;0.60;;;-0.90;47.60;;;;;;4372774;32;20090;-37
2021/03/04 02:18:13;;;;;;;1.77;0.40;;;-0.90;47.60;;;;;;4371660;32;20092;-35
2021/03/04 02:21:24;;;;;;;5.63;0.30;;;-0.90;47.60;;;;;;4371617;32;20085;-35
2021/03/04 02:24:20;;;;;;;1.83;0.50;;;-0.90;47.60;;;;;;4371800;32;20067;-37
2021/03/04 02:26:50;;;;;;;0.37;0.33;;;-0.90;47.50;;;;;;4374302;32;20165;-38
2021/03/04 02:29:21;;;;;;;1.17;0.40;;;-0.90;47.50;;;;;;4373625;32;20074;-37
2021/03/04 02:31:47;;;;;;;1.30;0.60;;;-1.00;47.60;;;;;;4373905;32;20061;-37
2021/03/04 02:34:14;;;;;;;1.67;0.60;;;-1.00;47.70;;;;;;4375373;32;20138;-37
2021/03/04 02:36:41;;;;;;;2.17;0.50;;;-1.00;47.80;;;;;;4374429;32;20539;-36
2021/03/04 02:39:08;;;;;;;0.70;0.30;;;-1.00;47.80;;;;;;4373786;32;20105;-37
2021/03/04 02:41:36;;;;;;;0.93;0.30;;;-1.00;47.80;;;;;;4361802;32;20058;-36
2021/03/04 02:44:05;;;;;;;2.67;0.30;;;-1.00;47.80;;;;;;4375507;32;20074;-39
2021/03/04 02:46:36;;;;;;;2.27;0.37;;;-1.00;47.70;;;;;;4375271;32;20109;-39
2021/03/04 02:49:03;;;;;;;1.60;0.40;;;-1.00;47.70;;;;;;4373886;32;20171;-37
2021/03/04 02:51:30;;;;;;;2.63;0.50;;;-1.00;47.70;;;;;;4375355;32;20616;-37
2021/03/04 02:53:57;;;;;;;0.30;0.20;;;-1.00;47.70;;;;;;4361095;32;20074;-36
2021/03/04 02:56:24;;;;;;;0.53;0.30;;;-1.00;47.60;;;;;;4373873;32;20068;-36
2021/03/04 02:58:54;;;;;;;2.00;0.50;;;-1.00;47.50;;;;;;4348455;32;20073;-36
2021/03/04 03:01:21;;;;;;;4.77;0.40;;;-1.00;47.40;;;;;;4373536;32;20066;-36
2021/03/04 03:03:48;;;;;;;0.87;0.50;;;-1.00;47.30;;;;;;4374717;32;20473;-39
2021/03/04 03:06:16;;;;;;;0.83;0.40;;;-0.90;47.30;;;;;;4373606;32;20073;-35
2021/03/04 03:08:45;;;;;;;0.53;0.40;;;-0.90;47.10;;;;;;4373456;32;20070;-44
2021/03/04 03:11:11;;;;;;;3.80;0.53;;;-0.90;47.00;;;;;;4373598;32;20070;-37
2021/03/04 03:13:38;;;;;;;1.83;0.73;;;-1.00;46.90;;;;;;4360947;32;20109;-37
2021/03/04 03:16:05;;;;;;;4.30;0.47;;;-1.00;46.90;;;;;;4361190;32;20170;-37
2021/03/04 03:18:31;;;;;;;2.47;0.40;;;-1.00;47.00;;;;;;4373493;32;20066;-37
2021/03/04 03:20:58;;;;;;;5.47;0.50;;;-1.00;47.10;;;;;;4373068;32;20084;-38
2021/03/04 03:23:25;;;;;;;2.00;0.47;;;-1.10;47.10;;;;;;4375003;32;20206;-36
2021/03/04 03:25:51;;;;;;;2.33;0.30;;;-1.10;47.20;;;;;;4374537;32;20148;-37
2021/03/04 03:28:18;;;;;;;3.33;0.33;;;-1.10;47.30;;;;;;4374227;32;20158;-35
2021/03/04 03:30:44;;;;;;;2.63;0.50;;;-1.10;47.30;;;;;;4374296;32;20085;-46
2021/03/04 03:33:14;;;;;;;0.97;0.30;;;-1.10;47.40;;;;;;4373111;32;20073;-36
2021/03/04 03:35:41;;;;;;;4.33;0.50;;;-1.10;47.50;;;;;;4373314;32;20065;-37
2021/03/04 03:38:07;;;;;;;2.13;0.53;;;-1.10;47.60;;;;;;4360466;32;20081;-36
2021/03/04 03:40:36;;;;;;;0.93;0.40;;;-1.10;47.60;;;;;;4374259;32;20109;-36
2021/03/04 03:43:06;;;;;;;0.93;0.50;;;-1.20;47.50;;;;;;4373997;32;20547;-36
2021/03/04 03:45:39;;;;;;;0.87;0.37;;;-1.20;47.50;;;;;;4373012;32;20575;-38
2021/03/04 03:48:09;;;;;;;3.20;0.47;;;-1.20;47.60;;;;;;4374518;32;20093;-36
2021/03/04 03:50:36;;;;;;;0.57;0.30;;;-1.20;47.60;;;;;;4373073;32;20086;-36
2021/03/04 03:53:02;;;;;;;2.67;0.50;;;-1.20;47.50;;;;;;4372825;32;20089;-37
2021/03/04 03:55:29;;;;;;;0.30;0.20;;;-1.20;47.50;;;;;;4372457;32;20501;-37
2021/03/04 03:57:56;;;;;;;0.20;0.20;;;-1.30;47.50;;;;;;4373940;32;20190;-36
2021/03/04 04:00:26;;;;;;;0.20;0.20;;;-1.20;47.60;;;;;;4373851;32;20074;-36
2021/03/04 04:03:03;;;;;;;2.13;0.40;;;-1.20;47.50;;;;;;4372554;32;20205;-37
2021/03/04 04:05:31;;;;;;;1.20;0.40;;;-1.10;47.60;;;;;;4372819;32;20583;-39
2021/03/04 04:07:58;;;;;;;0.57;0.30;;;-1.10;47.50;;;;;;4372554;32;20138;-36
2021/03/04 04:10:26;;;;;;;0.83;0.30;;;-1.10;47.60;;;;;;4374273;32;20073;-36
2021/03/04 04:12:53;;;;;;;1.80;0.33;;;-1.00;47.60;;;;;;4360337;32;20105;-37
2021/03/04 04:15:20;;;;;;;4.83;0.50;;;-1.00;47.60;;;;;;4374033;32;20062;-35
2021/03/04 04:17:47;;;;;;;1.20;0.40;;;-1.00;47.50;;;;;;4374008;32;20130;-37
2021/03/04 04:20:15;;;;;;;1.63;0.60;;;-1.00;47.40;;;;;;4373974;32;20085;-36
2021/03/04 04:22:41;;;;;;;1.27;0.47;;;-1.00;47.30;;;;;;4372506;32;20570;-37
2021/03/04 04:25:10;;;;;;;4.10;1.27;;;-0.90;47.40;;;;;;4372491;32;20101;-36
2021/03/04 04:27:36;;;;;;;2.13;0.60;;;-0.90;47.40;;;;;;4359769;32;20065;-36
2021/03/04 04:30:06;;;;;;;0.70;0.30;;;-0.80;47.50;;;;;;4373879;32;20158;-36
2021/03/04 04:32:33;;;;;;;1.30;0.50;;;-0.80;47.50;;;;;;4373962;32;20144;-37
2021/03/04 04:34:59;;;;;;;0.77;0.50;;;-0.70;47.50;;;;;;4373601;32;20477;-37
2021/03/04 04:37:26;;;;;;;0.90;0.53;;;-0.60;47.60;;;;;;4373940;32;20506;-38
2021/03/04 04:39:52;;;;;;;2.30;0.60;;;-0.50;47.60;;;;;;4373561;32;20081;-41
2021/03/04 04:42:19;;;;;;;3.27;0.43;;;-0.40;47.50;;;;;;4373712;32;20074;-39
2021/03/04 04:44:45;;;;;;;2.13;0.50;;;-0.30;47.30;;;;;;4371963;32;20500;-36
2021/03/04 04:47:12;;;;;;;1.00;0.50;;;-0.10;47.30;;;;;;4373721;32;20059;-46
2021/03/04 04:49:38;;;;;;;1.73;0.40;;;0.00;47.10;;;;;;4373457;32;20090;-37
2021/03/04 04:52:05;;;;;;;5.50;0.60;;;0.10;46.90;;;;;;4373618;32;20155;-38
2021/03/04 04:54:31;;;;;;;1.23;0.40;;;0.20;46.70;;;;;;4373101;32;20092;-36
2021/03/04 04:56:58;;;;;;;3.23;0.60;;;0.30;46.50;;;;;;4373617;32;20077;-36
2021/03/04 04:59:24;;;;;;;1.27;0.40;;;0.30;46.20;;;;;;4373609;32;20064;-38
2021/03/04 05:01:50;;;;;;;0.97;0.40;;;0.40;46.20;;;;;;4371961;32;20086;-37
2021/03/04 05:04:17;;;;;;;0.60;0.40;;;0.40;46.20;;;;;;4373719;32;20069;-37
2021/03/04 05:06:43;;;;;;;1.20;0.47;;;0.40;46.10;;;;;;4373073;32;20466;-40
2021/03/04 05:09:10;;;;;;;2.30;0.60;;;0.50;46.20;;;;;;4373244;32;20108;-36
2021/03/04 05:11:36;;;;;;;2.60;0.33;;;0.50;46.20;;;;;;4371907;32;20514;-36
2021/03/04 05:14:03;;;;;;;5.13;0.80;;;0.50;46.20;;;;;;4373024;32;20132;-37
2021/03/04 05:16:29;;;;;;;2.63;0.63;;;0.60;46.30;;;;;;4373230;32;20085;-37
2021/03/04 05:18:55;;;;;;;1.77;0.50;;;0.70;46.40;;;;;;4373086;32;20136;-37
2021/03/04 05:21:22;;;;;;;1.73;0.50;;;0.90;46.40;;;;;;4373202;32;20547;-37
2021/03/04 05:23:48;;;;;;;0.93;0.40;;;1.10;46.20;;;;;;4373563;32;20081;-36
2021/03/04 05:26:15;;;;;;;0.63;0.33;;;1.20;45.90;;;;;;4373122;32;20116;-36
2021/03/04 05:28:41;;;;;;;1.40;0.93;;;1.30;45.80;;;;;;4373175;32;20105;-37
2021/03/04 05:31:08;;;;;;;3.03;0.30;;;1.40;45.50;;;;;;4373362;32;20070;-38
2021/03/04 05:33:34;;;;;;;0.70;0.60;;;1.60;45.70;;;;;;4373123;32;20082;-42
2021/03/04 05:36:01;;;;;;;0.20;0.20;;;1.70;45.60;;;;;;4373040;32;20151;-35
2021/03/04 05:38:27;;;;;;;2.40;0.60;;;1.90;45.20;;;;;;4373319;32;20469;-44
2021/03/04 05:52:43;;;;;;;0.90;0.50;;;2.10;44.50;;;;;;3849148;37;20125;-35
2021/03/04 05:55:11;;;;;;;3.17;0.80;;;2.90;44.00;;;;;;4378083;32;20085;-39
2021/03/04 05:57:37;;;;;;;4.17;0.60;;;3.20;43.40;;;;;;4402344;32;20065;-36
2021/03/04 06:29:54;;;;;;;2.73;0.60;;;2.90;42.60;;;;;;3875127;37;20041;-42
2021/03/04 06:32:24;;;;;;;3.20;0.77;;;4.60;39.20;;;;;;4429030;32;20088;-42
2021/03/04 06:35:10;;;;;;;2.43;0.63;;;4.90;38.10;;;;;;4415149;32;20082;-43
2021/03/04 06:37:39;;;;;;;3.47;0.57;;;5.10;38.30;;;;;;4414768;32;20077;-43
2021/03/04 06:40:24;;;;;;;1.77;0.40;;;5.30;37.90;;;;;;4416142;32;20572;-42
2021/03/04 06:42:51;;;;;;;2.12;0.40;;;5.50;37.30;;;;;;4416396;32;20160;-44
2021/03/04 06:45:25;;;;;;;4.17;0.20;;;5.80;37.80;;;;;;4414707;32;20057;-37
2021/03/04 06:48:04;;;;;;;0.87;0.30;;;6.10;37.70;;;;;;4415885;32;20548;-37
2021/03/04 06:50:30;;;;;;;0.83;0.40;;;6.40;37.10;;;;;;4415198;32;20057;-36
2021/03/04 06:52:57;;;;;;;2.80;0.50;;;6.60;37.20;;;;;;4414905;32;20060;-39
2021/03/04 06:55:26;;;;;;;0.50;0.30;;;6.90;37.00;;;;;;4414550;32;20053;-38
2021/03/04 06:58:02;;;;;;;1.10;0.40;;;7.20;36.20;;;;;;4401831;32;20065;-38
2021/03/04 07:00:29;;;;;;;1.87;0.47;;;7.40;35.80;;;;;;4414759;32;20061;-38
2021/03/04 07:02:59;;;;;;;0.77;0.67;;;7.70;35.40;;;;;;4414394;32;20054;-38
2021/03/04 07:05:26;;;;;;;2.30;0.57;;;7.90;34.40;;;;;;4414695;32;20146;-36
2021/03/04 07:07:57;;;;;;;2.07;1.07;;;8.00;34.30;;;;;;4416080;32;20065;-37
2021/03/04 07:10:26;;;;;;;2.27;0.40;;;8.10;34.00;;;;;;4404290;32;20057;-38
2021/03/04 07:12:53;;;;;;;1.17;0.40;;;8.30;34.20;;;;;;4401593;32;20561;-39
2021/03/04 07:15:21;;;;;;;1.40;0.43;;;8.60;34.20;;;;;;4401486;32;20142;-39
2021/03/04 07:17:49;;;;;;;1.12;0.52;;;8.90;33.80;;;;;;4388854;32;20561;-39
2021/03/04 07:20:18;;;;;;;2.63;0.50;;;9.00;33.20;;;;;;4382488;32;20074;-38
2021/03/04 07:22:46;;;;;;;1.97;0.40;;;9.20;32.60;;;;;;4352072;32;20067;-39
2021/03/04 07:25:16;;;;;;;0.80;0.40;;;9.30;32.60;;;;;;4323264;33;20060;-39
2021/03/04 07:27:43;;;;;;;0.80;0.50;;;9.30;32.60;;;;;;4318353;33;20063;-40
2021/03/04 07:30:11;;;;;;;1.02;0.40;;;9.40;33.30;;;;;;4318803;33;20577;-40
2021/03/04 07:32:38;;;;;;;3.87;0.40;;;9.50;32.60;;;;;;4318429;33;20151;-39
2021/03/04 07:35:11;;;;;;;1.10;0.60;;;9.70;33.20;;;;;;4330917;33;20134;-38
2021/03/04 07:37:43;;;;;;;1.75;0.50;;;9.80;32.00;;;;;;4318838;33;20070;-41
2021/03/04 07:40:14;;;;;;;;;;;9.90;32.30;;;;;;4330895;33;20168;-39
2021/03/04 07:42:41;;;;;;;0.85;0.40;;;10.00;32.60;;;;;;4330276;33;20026;-40
2021/03/04 07:45:12;;;;;;;2.90;0.52;;;10.30;32.50;;;;;;4318359;33;20577;-40
2021/03/04 07:47:39;;;;;;;2.70;0.40;;;10.40;31.70;;;;;;4328205;33;20074;-41
2021/03/04 07:50:19;;;;;;;0.75;0.37;;;10.60;31.10;;;;;;4315757;33;20095;-38
2021/03/04 07:52:46;;;;;;;2.05;0.47;;;10.60;31.20;;;;;;4327747;33;20063;-39
2021/03/04 07:55:15;;;;;;;2.05;0.40;;;10.70;31.10;;;;;;4303432;33;20622;-40
2021/03/04 07:57:48;;;;;;;2.25;0.40;;;10.80;31.20;;;;;;4335079;33;20082;-40
2021/03/04 08:00:16;;;;;;;4.93;0.60;;;10.90;31.20;;;;;;4345481;32;20145;-40
2021/03/04 08:02:43;;;;;;;1.48;0.50;;;11.10;31.20;;;;;;4359349;32;20062;-41
2021/03/04 08:05:39;;;;;;;0.75;0.40;;;11.20;30.80;;;;;;4360065;32;20086;-42
2021/03/04 08:08:20;;;;;;;1.85;0.50;;;11.40;30.90;;;;;;4372138;32;20463;-41
2021/03/04 08:10:54;;;;;;;3.50;0.57;;;11.60;30.70;;;;;;4344921;32;20097;-42
2021/03/04 08:13:39;;;;;;;0.93;0.43;;;11.80;30.60;;;;;;4356823;32;20058;-41
2021/03/04 08:16:17;;;;;;;1.20;0.50;;;12.10;30.30;;;;;;4344874;32;20074;-41
2021/03/04 08:18:45;;;;;;;1.00;0.40;;;12.40;30.90;;;;;;4364433;32;20185;-42
2021/03/04 08:21:11;;;;;;;1.62;0.50;;;12.50;29.90;;;;;;4359854;32;20110;-43
2021/03/04 08:23:44;;;;;;;2.75;0.55;;;12.80;29.90;;;;;;4371871;32;20061;-42
2021/03/04 08:26:23;;;;;;;4.95;0.70;;;12.90;29.40;;;;;;4359789;32;20072;-41
2021/03/04 08:28:50;;;;;;;5.50;0.57;;;12.90;29.60;;;;;;4371452;32;20059;-41
2021/03/04 08:31:16;;;;;;;1.67;0.80;;;12.90;29.80;;;;;;4316714;32;20074;-42
2021/03/04 08:33:54;;;;;;;1.33;0.40;;;13.00;30.00;;;;;;4329457;32;20062;-42
2021/03/04 08:36:20;;;;;;;5.35;1.02;;;13.00;30.00;;;;;;4329719;32;20150;-41
2021/03/04 08:38:47;;;;;;;2.40;0.70;;;12.90;29.70;;;;;;4311803;33;20075;-42
2021/03/04 08:41:23;;;;;;;3.22;0.80;;;12.80;30.40;;;;;;4312156;33;20079;-42
2021/03/04 08:43:51;;;;;;;5.28;1.25;;;12.50;29.90;;;;;;4311628;33;20095;-41
2021/03/04 08:46:18;;;;;;;0.73;0.50;;;12.20;30.00;;;;;;4312482;33;20059;-40
2021/03/04 08:48:46;;;;;;;3.58;0.60;;;11.80;30.50;;;;;;4300361;33;20071;-39
2021/03/04 08:51:13;;;;;;;0.65;0.50;;;11.40;30.90;;;;;;4288250;33;20166;-40
2021/03/04 08:53:39;;;;;;;1.37;0.60;;;10.90;31.40;;;;;;4300422;33;20154;-40
2021/03/04 08:56:08;;;;;;;1.62;0.60;;;10.40;32.10;;;;;;4300277;33;20075;-40
2021/03/04 08:58:43;;;;;;;1.17;0.60;;;9.90;32.90;;;;;;4312246;33;20202;-38
2021/03/04 09:01:11;;;;;;;1.37;0.60;;;9.40;33.90;;;;;;4300715;33;20085;-40
2021/03/04 09:03:43;;;;;;;3.47;0.90;;;8.90;34.30;;;;;;4315538;33;20574;-38
2021/03/04 09:06:16;;;;;;;2.60;0.50;;;8.50;35.10;;;;;;4292561;33;20067;-38
2021/03/04 09:08:50;;;;;;;2.87;0.67;;;8.10;35.90;;;;;;4302424;33;20099;-38
2021/03/04 09:11:35;;;;;;;3.83;0.93;;;7.80;36.70;;;;;;4342309;33;20050;-38
2021/03/04 09:14:08;;;;;;;6.40;0.82;;;7.50;37.60;;;;;;4342331;33;20108;-37
2021/03/04 09:16:45;;;;;;;2.10;0.90;;;7.40;38.20;;;;;;4342449;33;20070;-37
2021/03/04 09:19:33;;;;;;;2.83;0.60;;;7.30;38.70;;;;;;4341376;33;20094;-36
2021/03/04 09:22:04;;;;;;;1.47;0.70;;;7.10;38.80;;;;;;4328346;33;20097;-40
2021/03/04 09:24:34;;;;;;;7.43;0.90;;;7.00;39.20;;;;;;4341516;33;20075;-37
2021/03/04 09:27:05;;;;;;;5.07;0.90;;;6.80;39.50;;;;;;4340999;33;20069;-36
2021/03/04 09:29:32;;;;;;;2.13;0.90;;;6.70;40.00;;;;;;4340721;33;20090;-36
2021/03/04 09:31:59;;;;;;;1.40;0.70;;;6.60;40.20;;;;;;4328621;33;20075;-38
2021/03/04 09:34:38;;;;;;;1.93;0.60;;;6.60;40.60;;;;;;4340867;33;20070;-37
2021/03/04 09:37:16;;;;;;;1.97;0.57;;;6.60;40.90;;;;;;4340754;33;20070;-39
2021/03/04 09:39:44;;;;;;;2.20;0.87;;;6.70;41.00;;;;;;4360387;32;20080;-36
2021/03/04 09:42:13;;;;;;;1.53;0.60;;;6.80;41.10;;;;;;4377163;32;20121;-37
2021/03/04 09:44:56;;;;;;;2.47;0.90;;;6.80;41.10;;;;;;4377084;32;20137;-39
2021/03/04 09:47:25;;;;;;;2.10;0.53;;;6.80;41.20;;;;;;4388830;32;20065;-36
2021/03/04 09:49:55;;;;;;;1.50;0.50;;;6.80;41.00;;;;;;4376657;32;20567;-37
2021/03/04 09:52:30;;;;;;;3.20;0.93;;;6.80;41.20;;;;;;4376662;32;20081;-36
2021/03/04 09:55:17;;;;;;;1.65;0.50;;;6.80;41.40;;;;;;4333099;32;20093;-37
2021/03/04 09:57:45;;;;;;;2.57;0.80;;;6.80;41.50;;;;;;4357705;32;20066;-37
2021/03/04 10:00:23;;;;;;;3.50;0.50;;;6.80;41.60;;;;;;4333570;32;20150;-36
2021/03/04 10:02:52;;;;;;;3.97;0.90;;;6.70;41.70;;;;;;4357592;32;20202;-38
2021/03/04 10:05:24;;;;;;;3.50;0.77;;;6.70;41.90;;;;;;4342494;32;20113;-36
2021/03/04 10:07:56;;;;;;;3.70;0.73;;;6.60;42.20;;;;;;4331255;32;20070;-37
2021/03/04 10:10:23;;;;;;;3.10;0.63;;;6.60;42.30;;;;;;4340687;32;20102;-37
2021/03/04 10:12:57;;;;;;;1.00;0.67;;;6.50;42.40;;;;;;4342840;32;20081;-36
2021/03/04 10:15:32;;;;;;;5.87;1.67;;;6.50;42.60;;;;;;4286942;33;20501;-37
2021/03/04 10:18:10;;;;;;;0.97;0.57;;;6.50;42.80;;;;;;4299304;33;20078;-37
2021/03/04 10:20:41;;;;;;;1.50;0.57;;;6.40;43.00;;;;;;4296393;33;20077;-37
2021/03/04 10:23:08;;;;;;;1.20;0.63;;;6.40;43.30;;;;;;4296328;33;20067;-36
2021/03/04 10:25:35;;;;;;;3.23;0.80;;;6.50;43.70;;;;;;4279659;33;20148;-37
2021/03/04 10:28:03;;;;;;;3.13;0.67;;;6.50;43.80;;;;;;4296483;33;20252;-37
2021/03/04 10:30:34;;;;;;;2.83;0.60;;;6.50;43.80;;;;;;4272612;33;20056;-37
2021/03/04 10:33:11;;;;;;;6.97;1.23;;;6.50;44.00;;;;;;4272943;33;20459;-36
2021/03/04 10:35:38;;;;;;;3.53;0.83;;;6.50;44.10;;;;;;4296612;33;20146;-37
2021/03/04 10:38:04;;;;;;;2.67;0.70;;;6.50;44.10;;;;;;4260082;33;20071;-37
2021/03/04 10:40:31;;;;;;;3.33;1.07;;;6.50;44.20;;;;;;4296379;33;20556;-38
2021/03/04 10:42:58;;;;;;;2.50;0.73;;;6.50;44.20;;;;;;4272218;33;20088;-38
2021/03/04 10:45:24;;;;;;;3.13;0.80;;;6.50;44.40;;;;;;4277460;33;20099;-36
2021/03/04 10:47:51;;;;;;;4.07;0.80;;;6.50;44.50;;;;;;4339973;33;20070;-37
2021/03/04 10:50:20;;;;;;;2.87;1.00;;;6.50;44.70;;;;;;4315818;33;20057;-39
2021/03/04 10:52:47;;;;;;;3.47;0.60;;;6.50;44.70;;;;;;4340371;33;20146;-37
2021/03/04 10:55:16;;;;;;;3.60;0.60;;;6.50;44.70;;;;;;4316167;33;20556;-37
2021/03/04 10:57:43;;;;;;;2.57;1.13;;;6.50;44.90;;;;;;4327080;32;20086;-37
2021/03/04 11:00:11;;;;;;;1.30;0.70;;;6.50;45.00;;;;;;4333718;32;20146;-37
2021/03/04 11:02:37;;;;;;;3.93;1.17;;;6.60;45.00;;;;;;4372548;32;20189;-37
2021/03/04 11:05:06;;;;;;;5.97;0.67;;;6.60;45.10;;;;;;4360205;32;20066;-37
2021/03/04 11:07:33;;;;;;;2.53;0.83;;;6.60;45.20;;;;;;4372572;32;20104;-37
2021/03/04 11:09:59;;;;;;;2.53;0.70;;;6.60;45.30;;;;;;4377308;32;20104;-37
2021/03/04 11:12:26;;;;;;;4.37;0.80;;;6.60;45.50;;;;;;4317651;33;20102;-37
2021/03/04 11:14:53;;;;;;;1.67;0.87;;;6.60;45.80;;;;;;4342871;32;20451;-38
2021/03/04 11:17:20;;;;;;;1.60;0.57;;;6.60;45.70;;;;;;4305957;33;20596;-39
2021/03/04 11:19:46;;;;;;;2.43;0.70;;;6.60;45.90;;;;;;4330808;33;20058;-37
2021/03/04 11:22:13;;;;;;;2.03;0.50;;;6.60;45.90;;;;;;4306136;33;20236;-37
2021/03/04 11:24:41;;;;;;;4.63;0.70;;;6.60;45.90;;;;;;4318219;33;20225;-38
2021/03/04 11:27:08;;;;;;;1.17;0.60;;;6.60;46.10;;;;;;4330845;33;20229;-39
2021/03/04 11:29:35;;;;;;;1.87;0.63;;;6.60;46.20;;;;;;4318192;33;20150;-36
2021/03/04 11:32:01;;;;;;;1.60;0.60;;;6.60;46.30;;;;;;4317781;33;20514;-37
2021/03/04 11:34:28;;;;;;;3.00;0.90;;;6.60;46.50;;;;;;4342562;32;20071;-38
2021/03/04 11:36:55;;;;;;;3.63;1.13;;;6.50;46.60;;;;;;4342653;32;20090;-37
2021/03/04 11:39:21;;;;;;;1.70;0.67;;;6.50;46.70;;;;;;4330010;33;20063;-38
2021/03/04 11:41:48;;;;;;;2.73;0.90;;;6.50;46.90;;;;;;4318391;33;20220;-37
2021/03/04 11:44:15;;;;;;;4.07;1.00;;;6.50;47.20;;;;;;4355365;32;20053;-39
2021/03/04 11:46:41;;;;;;;2.43;1.10;;;6.40;47.30;;;;;;4320308;32;20086;-38
2021/03/04 11:49:08;;;;;;;1.90;0.80;;;6.40;47.40;;;;;;4356982;32;20069;-37
2021/03/04 11:51:35;;;;;;;0.83;0.47;;;6.40;47.60;;;;;;4300052;33;20489;-38
2021/03/04 11:54:02;;;;;;;10.17;0.90;;;6.40;47.70;;;;;;4288658;33;20102;-37
2021/03/04 11:56:28;;;;;;;2.27;1.20;;;6.40;48.00;;;;;;4288408;33;20091;-38
2021/03/04 11:58:55;;;;;;;3.73;0.60;;;6.30;48.10;;;;;;4312629;33;20086;-38
2021/03/04 12:01:22;;;;;;;2.27;0.77;;;6.30;48.00;;;;;;4300503;33;20487;-41
2021/03/04 12:03:48;;;;;;;1.50;1.20;;;6.40;48.30;;;;;;4300712;33;20070;-40
2021/03/04 12:06:15;;;;;;;1.10;0.50;;;6.30;48.30;;;;;;4300817;33;20064;-38
2021/03/04 12:08:41;;;;;;;5.47;0.90;;;6.30;48.30;;;;;;4288586;33;20165;-38
2021/03/04 12:11:08;;;;;;;4.00;1.07;;;6.30;48.80;;;;;;4300512;33;21008;-39
2021/03/04 12:13:35;;;;;;;1.53;0.60;;;6.30;49.00;;;;;;4300136;33;20541;-38
2021/03/04 12:16:05;;;;;;;2.00;0.60;;;6.30;49.90;;;;;;4312829;33;20060;-38
2021/03/04 12:18:33;;;;;;;4.33;1.00;;;6.30;49.40;;;;;;4324877;33;20529;-38
2021/03/04 12:21:00;;;;;;;1.50;0.70;;;6.30;49.50;;;;;;4329496;33;20063;-37
2021/03/04 12:23:27;;;;;;;2.03;1.00;;;6.30;49.70;;;;;;4329585;33;20087;-40
2021/03/04 12:25:54;;;;;;;3.20;1.20;;;6.30;49.80;;;;;;4329548;33;20079;-41
2021/03/04 12:28:21;;;;;;;3.07;0.80;;;6.30;49.90;;;;;;4335771;32;20084;-40
2021/03/04 12:30:48;;;;;;;4.33;1.00;;;6.40;49.90;;;;;;4387522;32;20066;-38
2021/03/04 12:33:14;;;;;;;2.80;0.97;;;6.40;49.90;;;;;;4351224;32;20143;-39
2021/03/04 12:35:41;;;;;;;2.20;0.60;;;6.40;49.80;;;;;;4375059;32;20105;-38
2021/03/04 12:38:08;;;;;;;1.23;0.70;;;6.40;49.70;;;;;;4375070;32;20137;-39
2021/03/04 12:40:36;;;;;;;4.63;1.00;;;6.40;49.80;;;;;;4350531;32;20073;-40
2021/03/04 12:43:06;;;;;;;2.83;0.70;;;6.40;50.00;;;;;;4375035;32;20496;-37
2021/03/04 12:45:34;;;;;;;3.13;0.97;;;6.40;50.10;;;;;;4363432;32;20166;-40
2021/03/04 12:48:01;;;;;;;4.90;0.97;;;6.40;50.00;;;;;;4375141;32;20561;-38
2021/03/04 12:50:28;;;;;;;2.67;0.80;;;6.40;50.10;;;;;;4374560;32;20076;-39
2021/03/04 12:52:55;;;;;;;3.17;1.07;;;6.40;50.20;;;;;;4350006;32;20078;-40
2021/03/04 12:55:22;;;;;;;4.43;0.80;;;6.40;50.10;;;;;;4375297;32;20100;-38
2021/03/04 12:57:49;;;;;;;1.23;0.70;;;6.40;50.10;;;;;;4362466;32;20497;-38
2021/03/04 13:00:17;;;;;;;1.80;0.70;;;6.40;50.00;;;;;;4374367;32;20149;-38
2021/03/04 13:02:44;;;;;;;3.97;0.77;;;6.40;50.00;;;;;;4349416;32;20517;-39
2021/03/04 13:05:11;;;;;;;5.50;0.90;;;6.40;50.10;;;;;;4362070;32;20138;-39
2021/03/04 13:07:40;;;;;;;5.03;0.87;;;6.40;50.30;;;;;;4337781;32;20612;-38
2021/03/04 13:10:08;;;;;;;8.73;1.47;;;6.30;50.30;;;;;;4373119;32;20541;-37
2021/03/04 13:12:35;;;;;;;2.13;0.87;;;6.30;50.60;;;;;;4345765;32;20147;-38
2021/03/04 13:15:04;;;;;;;1.63;1.03;;;6.30;50.60;;;;;;4371413;32;20085;-38
2021/03/04 13:17:31;;;;;;;2.40;0.70;;;6.30;50.70;;;;;;4346669;32;20086;-37
2021/03/04 13:19:58;;;;;;;6.70;1.50;;;6.30;50.80;;;;;;4338317;33;20511;-38
2021/03/04 13:22:24;;;;;;;3.60;1.13;;;6.30;50.70;;;;;;4301562;33;20705;-38
2021/03/04 13:24:51;;;;;;;3.17;0.90;;;6.40;50.80;;;;;;4314015;33;20064;-40
2021/03/04 13:27:18;;;;;;;7.87;1.40;;;6.40;50.70;;;;;;4340595;32;20079;-38
2021/03/04 13:29:45;;;;;;;5.57;1.10;;;6.40;50.90;;;;;;4340384;33;20579;-38
2021/03/04 13:32:12;;;;;;;2.00;0.83;;;6.40;50.90;;;;;;4352610;32;20145;-39
2021/03/04 13:34:38;;;;;;;4.90;1.20;;;6.40;51.00;;;;;;4353668;32;20506;-38
2021/03/04 13:37:05;;;;;;;3.50;1.03;;;6.40;51.00;;;;;;4353104;32;20074;-39
2021/03/04 13:39:32;;;;;;;2.47;0.87;;;6.40;51.20;;;;;;4353238;32;20059;-39
2021/03/04 13:41:59;;;;;;;6.97;1.40;;;6.40;51.40;;;;;;4341176;33;20507;-39